Allenville, Missouri
Current Conditions -  °F | °C
As of 12:53 AM on Saturday 01 Nov 2014 (Local Time) from KCGI Reporting Station
Clear Clear  
Wind Chill: 30°   Ceiling: Unl
Heat Index: 37°   Visibility: 10mi
Dew Point: 22°   Wind: 9mph
Humidity: 54%   Direction: 350°N
Pressure: 30.33"   Gusts: NA
Location:  37.1651°N, 89.623°W
Report Text: KCGI 010553Z AUTO 35008KT 10SM CLR 03/M06 A3033 RMK AO2 SLP273 T00281056 10061 20028 401170028 50002 TSNO
Loading
Personal Weather Stations






























Interactive Weather Map
Tropical Storm Tracking
New forecast layout! Learn more

10-Day Weather Forecast

Advertisements
Track Severe Weather on mobile